Time;durP1;ratioP1;P1;durP2;ratioP2;P2;SDS_P1;SDS_P2;PMS_P1;PMS_P2;Temp;Humidity;BMP_temperature;BMP_pressure;BME280_temperature;BME280_humidity;BME280_pressure;Samples;Min_cycle;Max_cycle;Signal;HPM_P1;HPM_P2
2021/10/10 00:04:17;;;;;;;9.38;7.60;;;;;;;;;;10490327;28;20436;-84
2021/10/10 00:09:18;;;;;;;8.88;7.97;;;;;;;;;;10490984;28;20555;-85
2021/10/10 00:14:19;;;;;;;9.00;8.05;;;;;;;;;;10509625;28;20045;-84
2021/10/10 00:19:20;;;;;;;9.25;7.88;;;;;;;;;;10503239;28;20178;-84
2021/10/10 00:24:21;;;;;;;9.73;8.02;;;;;;;;;;10486993;28;20390;-84
2021/10/10 00:29:25;;;;;;;9.60;8.60;;;;;;;;;;10486488;28;20040;-83
2021/10/10 00:34:26;;;;;;;9.00;8.10;;;;;;;;;;10485517;28;20032;-84
2021/10/10 00:39:27;;;;;;;10.70;8.88;;;;;;;;;;10485863;28;20072;-85
2021/10/10 00:44:28;;;;;;;9.43;8.02;;;;;;;;;;10486151;28;20032;-84
2021/10/10 00:49:29;;;;;;;10.43;8.25;;;;;;;;;;10503293;28;20044;-84
2021/10/10 00:54:31;;;;;;;9.02;7.38;;;;;;;;;;10485413;28;20039;-84
2021/10/10 00:59:35;;;;;;;8.00;6.95;;;;;;;;;;10500936;28;20031;-81
2021/10/10 01:04:35;;;;;;;9.63;8.63;;;;;;;;;;10539463;28;20033;-85
2021/10/10 01:09:37;;;;;;;8.88;7.50;;;;;;;;;;10541206;28;20051;-85
2021/10/10 01:14:38;;;;;;;8.80;7.35;;;;;;;;;;10519093;28;20391;-85
2021/10/10 01:19:42;;;;;;;10.20;8.57;;;;;;;;;;10497244;28;20044;-85
2021/10/10 01:24:43;;;;;;;9.70;8.70;;;;;;;;;;10495822;28;20036;-83
2021/10/10 01:29:44;;;;;;;8.48;7.10;;;;;;;;;;10494268;28;20039;-84
2021/10/10 01:34:45;;;;;;;11.55;8.70;;;;;;;;;;10492567;28;20036;-84
2021/10/10 01:39:46;;;;;;;10.82;8.60;;;;;;;;;;10491763;28;20527;-85
2021/10/10 01:44:47;;;;;;;8.15;7.20;;;;;;;;;;10491842;28;20032;-84
2021/10/10 01:49:48;;;;;;;8.88;7.65;;;;;;;;;;10508243;28;20496;-84
2021/10/10 01:54:49;;;;;;;8.80;7.90;;;;;;;;;;10486385;28;20114;-84
2021/10/10 01:59:50;;;;;;;8.85;7.95;;;;;;;;;;10503752;28;20379;-84
2021/10/10 02:04:51;;;;;;;10.38;8.15;;;;;;;;;;10485571;28;20040;-84
2021/10/10 02:09:52;;;;;;;8.75;7.80;;;;;;;;;;10483903;28;20397;-84
2021/10/10 02:14:53;;;;;;;11.32;8.48;;;;;;;;;;10501215;28;20039;-85
2021/10/10 02:19:54;;;;;;;10.05;7.85;;;;;;;;;;10508170;28;20078;-83
2021/10/10 02:24:55;;;;;;;10.68;8.00;;;;;;;;;;10487244;28;20174;-84
2021/10/10 02:29:55;;;;;;;8.82;7.43;;;;;;;;;;10487804;28;20033;-85
2021/10/10 02:34:56;;;;;;;9.05;8.07;;;;;;;;;;10491986;28;20029;-85
2021/10/10 02:39:57;;;;;;;8.75;7.85;;;;;;;;;;10498322;28;20123;-86
2021/10/10 02:44:58;;;;;;;9.05;8.15;;;;;;;;;;10511073;28;20033;-86
2021/10/10 02:49:59;;;;;;;9.40;7.78;;;;;;;;;;10519798;28;20080;-87
2021/10/10 02:55:00;;;;;;;8.68;6.72;;;;;;;;;;10492839;28;20035;-86
2021/10/10 03:00:01;;;;;;;9.70;8.55;;;;;;;;;;10480559;28;20131;-87
2021/10/10 03:05:03;;;;;;;9.27;7.00;;;;;;;;;;10488002;28;20086;-86
2021/10/10 03:10:04;;;;;;;8.88;7.90;;;;;;;;;;10491837;28;20044;-86
2021/10/10 03:15:05;;;;;;;9.90;7.60;;;;;;;;;;10496585;28;20037;-86
2021/10/10 03:20:07;;;;;;;11.38;8.05;;;;;;;;;;10497263;28;20343;-85
2021/10/10 03:25:08;;;;;;;10.15;8.35;;;;;;;;;;10497230;28;20036;-86
2021/10/10 03:30:09;;;;;;;8.93;8.02;;;;;;;;;;10497945;28;20040;-86
2021/10/10 03:35:10;;;;;;;9.63;8.63;;;;;;;;;;10499117;28;20024;-87
2021/10/10 03:40:11;;;;;;;8.95;7.90;;;;;;;;;;10499235;28;20458;-86
2021/10/10 03:45:12;;;;;;;10.20;8.07;;;;;;;;;;10512225;28;20036;-87
2021/10/10 03:50:13;;;;;;;9.07;8.18;;;;;;;;;;10523564;28;20470;-85
2021/10/10 04:00:34;;;;;;;9.23;7.75;;;;;;;;;;10535667;28;20045;-85
2021/10/10 04:05:39;;;;;;;9.45;8.10;;;;;;;;;;10517556;28;20032;-86
2021/10/10 04:10:40;;;;;;;7.90;7.10;;;;;;;;;;10515084;28;20033;-85
2021/10/10 04:15:41;;;;;;;9.10;8.02;;;;;;;;;;10493888;28;20062;-84
2021/10/10 04:20:42;;;;;;;9.63;8.55;;;;;;;;;;10517865;28;20054;-84
2021/10/10 04:25:43;;;;;;;7.60;6.80;;;;;;;;;;10496998;28;20086;-85
2021/10/10 04:30:44;;;;;;;8.40;7.45;;;;;;;;;;10490896;28;20032;-85
2021/10/10 04:35:48;;;;;;;7.15;6.45;;;;;;;;;;10507995;28;20056;-85
2021/10/10 04:40:49;;;;;;;8.63;6.88;;;;;;;;;;10488988;28;20040;-83
2021/10/10 04:45:50;;;;;;;8.98;7.60;;;;;;;;;;10488217;28;20066;-85
2021/10/10 04:50:51;;;;;;;8.05;6.60;;;;;;;;;;10505726;28;20542;-85
2021/10/10 04:55:52;;;;;;;7.53;6.70;;;;;;;;;;10505766;28;20035;-84
2021/10/10 05:00:53;;;;;;;9.35;7.15;;;;;;;;;;10487366;28;20038;-84
2021/10/10 05:05:54;;;;;;;7.68;6.88;;;;;;;;;;10505171;28;20088;-84
2021/10/10 05:10:55;;;;;;;9.43;7.95;;;;;;;;;;10486118;28;20069;-84
2021/10/10 05:15:56;;;;;;;7.32;6.55;;;;;;;;;;10485333;28;20054;-84
2021/10/10 05:20:57;;;;;;;8.60;7.35;;;;;;;;;;10486448;28;20033;-84
2021/10/10 05:25:59;;;;;;;7.20;6.50;;;;;;;;;;10504068;28;20546;-84
2021/10/10 05:30:59;;;;;;;8.30;7.38;;;;;;;;;;10493382;28;20039;-84
2021/10/10 05:36:00;;;;;;;8.23;6.97;;;;;;;;;;10530438;28;20017;-82
2021/10/10 05:41:02;;;;;;;7.95;7.03;;;;;;;;;;10526688;28;20071;-85
2021/10/10 05:46:03;;;;;;;7.82;7.03;;;;;;;;;;10503531;28;20032;-86
2021/10/10 05:51:04;;;;;;;8.88;7.10;;;;;;;;;;10489590;28;20047;-85
2021/10/10 05:56:06;;;;;;;8.48;7.57;;;;;;;;;;10491236;28;20044;-85
2021/10/10 06:01:07;;;;;;;7.90;7.07;;;;;;;;;;10507399;28;20048;-84
2021/10/10 06:06:08;;;;;;;9.18;7.65;;;;;;;;;;10506827;28;20086;-85
2021/10/10 06:11:10;;;;;;;8.88;7.50;;;;;;;;;;10488943;28;20049;-85
2021/10/10 06:16:11;;;;;;;7.85;7.05;;;;;;;;;;10487719;28;20025;-85
2021/10/10 06:21:12;;;;;;;7.70;6.90;;;;;;;;;;10486365;28;20040;-84
2021/10/10 06:26:13;;;;;;;7.80;7.00;;;;;;;;;;10508850;28;20032;-85
2021/10/10 06:31:14;;;;;;;7.50;6.70;;;;;;;;;;10487250;28;20124;-85
2021/10/10 06:36:20;;;;;;;9.55;7.60;;;;;;;;;;10487890;28;20630;-85
2021/10/10 06:41:21;;;;;;;8.88;7.43;;;;;;;;;;10487025;28;20033;-83
2021/10/10 06:46:22;;;;;;;9.40;7.78;;;;;;;;;;10496757;28;20028;-84
2021/10/10 06:51:23;;;;;;;7.95;7.15;;;;;;;;;;10497404;28;20048;-84
2021/10/10 06:56:24;;;;;;;11.23;9.00;;;;;;;;;;10518857;28;20037;-86
2021/10/10 07:01:25;;;;;;;7.60;6.70;;;;;;;;;;10515463;28;20032;-86
2021/10/10 07:06:26;;;;;;;10.20;8.80;;;;;;;;;;10499295;28;20033;-86
2021/10/10 07:11:27;;;;;;;9.70;8.70;;;;;;;;;;10498519;28;20029;-86
2021/10/10 07:16:29;;;;;;;8.27;7.45;;;;;;;;;;10498473;28;20033;-86
2021/10/10 07:26:43;;;;;;;7.05;6.30;;;;;;;;;;10513429;28;20115;-86
2021/10/10 07:31:44;;;;;;;9.57;8.57;;;;;;;;;;10496704;28;20041;-85
2021/10/10 07:36:45;;;;;;;7.32;6.63;;;;;;;;;;10494340;28;20544;-85
2021/10/10 07:41:46;;;;;;;10.32;9.23;;;;;;;;;;10512752;28;20445;-85
2021/10/10 07:46:55;;;;;;;10.13;8.68;;;;;;;;;;10494923;28;20099;-85
2021/10/10 07:51:56;;;;;;;8.98;8.07;;;;;;;;;;10494022;28;20469;-85
2021/10/10 07:56:57;;;;;;;9.68;8.00;;;;;;;;;;10490568;28;20040;-84
2021/10/10 08:01:58;;;;;;;8.82;7.93;;;;;;;;;;10492538;28;20052;-84
2021/10/10 08:06:59;;;;;;;7.47;6.65;;;;;;;;;;10490977;28;20151;-86
2021/10/10 08:12:00;;;;;;;14.00;11.90;;;;;;;;;;10491105;28;20032;-86
2021/10/10 08:17:01;;;;;;;7.38;6.68;;;;;;;;;;10508132;28;20118;-86
2021/10/10 08:22:03;;;;;;;10.30;9.23;;;;;;;;;;10505460;28;20071;-86
2021/10/10 08:27:04;;;;;;;12.05;9.43;;;;;;;;;;10523705;28;20096;-84
2021/10/10 08:32:05;;;;;;;9.68;7.75;;;;;;;;;;10513335;28;20040;-85
2021/10/10 08:37:06;;;;;;;8.35;6.80;;;;;;;;;;10490465;28;20041;-86
2021/10/10 08:42:09;;;;;;;9.75;8.57;;;;;;;;;;10490010;28;20028;-86
2021/10/10 08:47:15;;;;;;;10.98;8.23;;;;;;;;;;10489850;28;20032;-86
2021/10/10 08:52:16;;;;;;;9.15;8.20;;;;;;;;;;10490211;28;20036;-86
2021/10/10 08:57:18;;;;;;;13.23;10.70;;;;;;;;;;10489500;28;20169;-86
2021/10/10 09:02:20;;;;;;;14.93;10.65;;;;;;;;;;10474213;28;20568;-86
2021/10/10 09:07:21;;;;;;;15.38;11.02;;;;;;;;;;10489337;28;20035;-86
2021/10/10 09:12:28;;;;;;;11.52;8.93;;;;;;;;;;10491700;28;20108;-86
2021/10/10 09:17:29;;;;;;;11.57;9.60;;;;;;;;;;10491905;28;20056;-85
2021/10/10 09:22:30;;;;;;;13.52;10.88;;;;;;;;;;10490464;28;20044;-86
2021/10/10 09:27:33;;;;;;;11.50;9.10;;;;;;;;;;10488532;28;20037;-86
2021/10/10 09:32:35;;;;;;;11.95;9.73;;;;;;;;;;10488678;28;20032;-86
2021/10/10 09:37:41;;;;;;;13.85;10.68;;;;;;;;;;10487851;28;20035;-86
2021/10/10 09:42:57;;;;;;;10.55;9.15;;;;;;;;;;10488186;28;20032;-86
2021/10/10 09:48:03;;;;;;;11.35;8.85;;;;;;;;;;10501200;28;20033;-85
2021/10/10 09:53:11;;;;;;;12.23;9.55;;;;;;;;;;10512039;28;20036;-87
2021/10/10 09:58:12;;;;;;;13.32;11.23;;;;;;;;;;10513304;28;20033;-87
2021/10/10 10:03:24;;;;;;;8.95;8.00;;;;;;;;;;10512472;28;20040;-87
2021/10/10 10:08:25;;;;;;;15.07;12.27;;;;;;;;;;10493358;28;20506;-86
2021/10/10 10:13:31;;;;;;;12.27;9.82;;;;;;;;;;10491334;28;20082;-87
2021/10/10 10:18:32;;;;;;;16.25;12.68;;;;;;;;;;10492974;28;20051;-87
2021/10/10 10:23:33;;;;;;;16.52;12.02;;;;;;;;;;10498270;28;20071;-86
2021/10/10 10:28:36;;;;;;;17.33;12.57;;;;;;;;;;10495550;28;20036;-84
2021/10/10 10:33:38;;;;;;;12.30;9.70;;;;;;;;;;10515929;28;20039;-84
2021/10/10 10:38:43;;;;;;;14.90;10.70;;;;;;;;;;10499575;28;20045;-85
2021/10/10 10:43:44;;;;;;;14.15;11.50;;;;;;;;;;10497983;28;20108;-85
2021/10/10 10:48:46;;;;;;;12.98;11.35;;;;;;;;;;10498131;28;20446;-85
2021/10/10 10:53:49;;;;;;;16.33;11.15;;;;;;;;;;10514957;28;20020;-85
2021/10/10 10:58:58;;;;;;;14.43;10.02;;;;;;;;;;10498848;28;20045;-88
2021/10/10 11:04:18;;;;;;;13.82;10.57;;;;;;;;;;10515214;28;20032;-84
2021/10/10 11:09:24;;;;;;;15.23;12.10;;;;;;;;;;10496606;28;20040;-84
2021/10/10 11:14:31;;;;;;;9.50;8.45;;;;;;;;;;10497452;28;20075;-85
2021/10/10 11:19:32;;;;;;;11.10;9.90;;;;;;;;;;10526448;28;20039;-82
2021/10/10 11:24:33;;;;;;;17.85;11.75;;;;;;;;;;10504899;28;20083;-85
2021/10/10 11:29:34;;;;;;;13.45;10.93;;;;;;;;;;10495990;28;20086;-88
2021/10/10 11:34:35;;;;;;;13.68;11.20;;;;;;;;;;10496561;28;20036;-86
2021/10/10 11:39:36;;;;;;;13.38;10.07;;;;;;;;;;10496575;28;20044;-84
2021/10/10 11:44:38;;;;;;;13.48;10.55;;;;;;;;;;10502911;28;20021;-85
2021/10/10 11:49:42;;;;;;;13.82;11.02;;;;;;;;;;10499377;28;20066;-85
2021/10/10 11:54:44;;;;;;;11.25;8.00;;;;;;;;;;10496494;28;20032;-86
2021/10/10 11:59:49;;;;;;;8.95;7.85;;;;;;;;;;10496087;28;20506;-85
2021/10/10 12:05:00;;;;;;;13.30;9.02;;;;;;;;;;10512383;28;20063;-86
2021/10/10 12:10:02;;;;;;;17.60;10.40;;;;;;;;;;10495136;28;20127;-86
2021/10/10 12:15:03;;;;;;;9.18;8.18;;;;;;;;;;10495555;28;20055;-86
2021/10/10 12:20:05;;;;;;;12.30;10.90;;;;;;;;;;10514000;28;20039;-85
2021/10/10 12:25:19;;;;;;;10.20;7.95;;;;;;;;;;10495747;28;20040;-85
2021/10/10 12:30:26;;;;;;;11.48;9.40;;;;;;;;;;10522140;28;20044;-84
2021/10/10 12:35:31;;;;;;;13.85;10.00;;;;;;;;;;10528567;28;20032;-82
2021/10/10 12:40:36;;;;;;;10.23;7.72;;;;;;;;;;10528533;28;20041;-84
2021/10/10 12:46:03;;;;;;;11.00;8.10;;;;;;;;;;10521836;28;20047;-84
2021/10/10 12:51:14;;;;;;;10.27;7.72;;;;;;;;;;10510494;28;20075;-86
2021/10/10 12:56:22;;;;;;;8.40;7.05;;;;;;;;;;10506616;28;20098;-85
2021/10/10 13:01:24;;;;;;;13.07;8.88;;;;;;;;;;10498831;28;20032;-87
2021/10/10 13:06:25;;;;;;;11.13;8.02;;;;;;;;;;10499003;28;20119;-86
2021/10/10 13:11:27;;;;;;;14.90;9.27;;;;;;;;;;10494713;28;20052;-87
2021/10/10 13:16:28;;;;;;;14.25;9.30;;;;;;;;;;10493157;28;20104;-85
2021/10/10 13:21:47;;;;;;;10.77;8.93;;;;;;;;;;10511927;28;20045;-86
2021/10/10 13:26:49;;;;;;;12.57;8.40;;;;;;;;;;10493430;28;20406;-86
2021/10/10 13:31:51;;;;;;;10.73;8.07;;;;;;;;;;10494238;28;20295;-86
2021/10/10 13:36:52;;;;;;;10.32;8.40;;;;;;;;;;10494387;28;20035;-86
2021/10/10 13:41:53;;;;;;;7.78;6.35;;;;;;;;;;10491325;28;20090;-86
2021/10/10 13:46:57;;;;;;;9.30;6.55;;;;;;;;;;10490764;28;20543;-86
2021/10/10 13:51:58;;;;;;;11.73;8.45;;;;;;;;;;10490379;28;20039;-86
2021/10/10 13:56:59;;;;;;;8.45;7.55;;;;;;;;;;10490717;28;20055;-87
2021/10/10 14:02:00;;;;;;;10.77;7.57;;;;;;;;;;10490486;28;20155;-86
2021/10/10 14:07:01;;;;;;;12.60;8.68;;;;;;;;;;10490404;28;20510;-85
2021/10/10 14:12:02;;;;;;;9.93;6.82;;;;;;;;;;10491580;28;20105;-86
2021/10/10 14:17:03;;;;;;;11.05;7.75;;;;;;;;;;10489124;28;20051;-86
2021/10/10 14:22:06;;;;;;;11.02;8.25;;;;;;;;;;10488700;28;20040;-85
2021/10/10 14:27:07;;;;;;;12.02;9.10;;;;;;;;;;10486838;28;20044;-84
2021/10/10 14:32:08;;;;;;;10.55;8.52;;;;;;;;;;10507361;28;20044;-86
2021/10/10 14:37:10;;;;;;;13.77;9.20;;;;;;;;;;10490664;28;20067;-85
2021/10/10 14:42:14;;;;;;;15.18;10.50;;;;;;;;;;10493402;28;20406;-85
2021/10/10 14:47:36;;;;;;;11.93;8.77;;;;;;;;;;10508477;28;20036;-85
2021/10/10 14:52:39;;;;;;;15.40;11.82;;;;;;;;;;10508843;28;20040;-86
2021/10/10 14:57:42;;;;;;;18.05;12.30;;;;;;;;;;10490269;28;20040;-86
2021/10/10 15:02:43;;;;;;;13.93;11.60;;;;;;;;;;10492679;28;20063;-86
2021/10/10 15:07:51;;;;;;;16.92;13.65;;;;;;;;;;10516000;28;20040;-86
2021/10/10 15:12:52;;;;;;;19.52;13.80;;;;;;;;;;10496770;28;20036;-85
2021/10/10 15:17:53;;;;;;;17.95;14.15;;;;;;;;;;10498527;28;20110;-86
2021/10/10 15:22:57;;;;;;;23.60;15.95;;;;;;;;;;10495838;28;20043;-86
2021/10/10 15:27:58;;;;;;;19.17;14.73;;;;;;;;;;10496708;28;20477;-86
2021/10/10 15:33:02;;;;;;;16.50;12.85;;;;;;;;;;10495910;28;20075;-85
2021/10/10 15:38:10;;;;;;;15.30;11.20;;;;;;;;;;10494543;28;20547;-87
2021/10/10 15:43:17;;;;;;;16.38;14.13;;;;;;;;;;10514404;28;20037;-86
2021/10/10 15:48:31;;;;;;;16.80;14.00;;;;;;;;;;10513687;28;20035;-86
2021/10/10 15:53:38;;;;;;;15.93;11.93;;;;;;;;;;10510006;28;20032;-88
2021/10/10 15:58:42;;;;;;;20.50;16.42;;;;;;;;;;10498437;28;20041;-87
2021/10/10 16:03:43;;;;;;;18.75;14.40;;;;;;;;;;10497473;28;20035;-86
2021/10/10 16:08:44;;;;;;;19.92;15.48;;;;;;;;;;10498014;28;20478;-87
2021/10/10 16:13:45;;;;;;;16.00;12.60;;;;;;;;;;10515313;28;20090;-86
2021/10/10 16:18:46;;;;;;;15.80;13.43;;;;;;;;;;10490986;28;20441;-86
2021/10/10 16:23:47;;;;;;;15.10;13.15;;;;;;;;;;10488441;28;20062;-86
2021/10/10 16:28:53;;;;;;;17.25;15.27;;;;;;;;;;10507713;28;20055;-87
2021/10/10 16:34:01;;;;;;;14.30;12.60;;;;;;;;;;10493877;28;20032;-87
2021/10/10 16:39:07;;;;;;;15.95;14.13;;;;;;;;;;10499659;28;20029;-86
2021/10/10 16:44:16;;;;;;;12.57;10.70;;;;;;;;;;10534355;28;20032;-86
2021/10/10 16:49:19;;;;;;;13.25;10.27;;;;;;;;;;10493924;28;20032;-86
2021/10/10 16:54:22;;;;;;;15.23;13.63;;;;;;;;;;10530517;28;20048;-85
2021/10/10 16:59:23;;;;;;;17.85;14.52;;;;;;;;;;10548307;28;20048;-86
2021/10/10 17:04:24;;;;;;;9.65;8.65;;;;;;;;;;10501832;28;20041;-86
2021/10/10 17:09:28;;;;;;;14.07;11.30;;;;;;;;;;10495027;28;20037;-87
2021/10/10 17:14:29;;;;;;;12.70;10.48;;;;;;;;;;10512305;28;20129;-87
2021/10/10 17:19:31;;;;;;;14.68;12.55;;;;;;;;;;10490983;28;20090;-87
2021/10/10 17:24:32;;;;;;;14.40;11.50;;;;;;;;;;10488006;28;20032;-86
2021/10/10 17:29:33;;;;;;;11.18;9.95;;;;;;;;;;10487040;28;20028;-87
2021/10/10 17:34:34;;;;;;;13.52;11.57;;;;;;;;;;10488427;28;20032;-87
2021/10/10 17:39:35;;;;;;;10.02;8.75;;;;;;;;;;10489700;28;20040;-87
2021/10/10 17:44:36;;;;;;;13.23;11.82;;;;;;;;;;10492545;28;20036;-87
2021/10/10 17:49:37;;;;;;;18.13;14.95;;;;;;;;;;10490044;28;20044;-86
2021/10/10 17:54:38;;;;;;;14.00;12.00;;;;;;;;;;10490175;28;20047;-86
2021/10/10 17:59:47;;;;;;;19.88;16.45;;;;;;;;;;10490641;28;20547;-86
2021/10/10 18:15:28;;;;;;;17.05;14.70;;;;;;;;;;10504869;28;20029;-86
2021/10/10 18:20:32;;;;;;;21.08;15.98;;;;;;;;;;10483281;28;20581;-85
2021/10/10 18:25:33;;;;;;;14.45;12.32;;;;;;;;;;10501061;28;20083;-86
2021/10/10 18:30:34;;;;;;;21.58;18.50;;;;;;;;;;10503173;28;20044;-86
2021/10/10 18:35:36;;;;;;;12.38;11.02;;;;;;;;;;10487003;28;20029;-85
2021/10/10 18:40:44;;;;;;;9.93;8.48;;;;;;;;;;10512914;28;20051;-85
2021/10/10 18:45:46;;;;;;;15.35;13.38;;;;;;;;;;10512825;28;20086;-86
2021/10/10 18:50:47;;;;;;;15.13;13.02;;;;;;;;;;10509376;28;20032;-86
2021/10/10 18:55:48;;;;;;;16.80;14.15;;;;;;;;;;10519340;28;20486;-85
2021/10/10 19:00:49;;;;;;;16.15;12.88;;;;;;;;;;10500151;28;20128;-86
2021/10/10 19:05:50;;;;;;;17.33;14.90;;;;;;;;;;10498231;28;20051;-86
2021/10/10 19:10:51;;;;;;;15.35;13.75;;;;;;;;;;10495533;28;20086;-86
2021/10/10 19:15:58;;;;;;;13.02;10.93;;;;;;;;;;10496867;28;20036;-86
2021/10/10 19:21:02;;;;;;;14.50;12.63;;;;;;;;;;10511931;28;20098;-85
2021/10/10 19:26:03;;;;;;;17.85;14.98;;;;;;;;;;10492394;28;20398;-85
2021/10/10 19:31:04;;;;;;;13.98;12.50;;;;;;;;;;10493472;28;20039;-86
2021/10/10 19:36:05;;;;;;;15.55;13.70;;;;;;;;;;10495357;28;20032;-86
2021/10/10 19:41:06;;;;;;;13.00;10.85;;;;;;;;;;10493668;28;20051;-86
2021/10/10 19:46:07;;;;;;;10.73;9.52;;;;;;;;;;10491724;28;20044;-85
2021/10/10 19:51:08;;;;;;;11.00;9.20;;;;;;;;;;10490089;28;20071;-86
2021/10/10 19:56:18;;;;;;;15.18;13.20;;;;;;;;;;10492312;28;20029;-85
2021/10/10 20:01:19;;;;;;;13.65;12.18;;;;;;;;;;10491434;28;20118;-86
2021/10/10 20:06:20;;;;;;;9.60;8.60;;;;;;;;;;10488918;28;20041;-85
2021/10/10 20:11:21;;;;;;;11.23;9.77;;;;;;;;;;10486570;28;20036;-85
2021/10/10 20:16:22;;;;;;;10.85;9.30;;;;;;;;;;10485886;28;20021;-85
